Time;durP1;ratioP1;P1;durP2;ratioP2;P2;SDS_P1;SDS_P2;PMS_P1;PMS_P2;Temp;Humidity;BMP_temperature;BMP_pressure;BME280_temperature;BME280_humidity;BME280_pressure;Samples;Min_cycle;Max_cycle;Signal;HPM_P1;HPM_P2
2024/03/02 00:00:32;;;;;;;80.13;14.50;;;;;;;12.43;100.00;100909.66;10479477;28;20040;-80
2024/03/02 00:05:56;;;;;;;94.80;15.65;;;;;;;12.41;100.00;100919.31;10488719;28;20385;-81
2024/03/02 00:11:20;;;;;;;98.13;15.93;;;;;;;12.31;100.00;100902.47;10472983;28;20044;-79
2024/03/02 00:16:43;;;;;;;89.53;16.65;;;;;;;12.22;100.00;100906.75;10488031;28;20052;-80
2024/03/02 00:22:06;;;;;;;100.78;19.42;;;;;;;12.17;100.00;100901.44;10492036;28;20044;-80
2024/03/02 00:27:30;;;;;;;86.50;16.95;;;;;;;12.16;100.00;100897.00;10478573;28;20041;-80
2024/03/02 00:32:53;;;;;;;87.80;16.40;;;;;;;12.09;100.00;100891.63;10487891;28;20090;-80
2024/03/02 00:38:16;;;;;;;86.75;15.05;;;;;;;11.98;100.00;100888.84;10487490;28;20055;-80
2024/03/02 00:43:55;;;;;;;89.43;14.10;;;;;;;12.01;100.00;100888.03;10472710;28;20048;-80
2024/03/02 00:49:23;;;;;;;85.57;16.95;;;;;;;11.96;100.00;100880.91;10451824;28;20074;-80
2024/03/02 00:54:45;;;;;;;132.48;45.78;;;;;;;11.89;100.00;100881.69;10470767;28;20052;-79
2024/03/02 01:00:15;;;;;;;105.60;20.85;;;;;;;11.87;100.00;100878.16;10486744;28;20122;-80
2024/03/02 01:05:37;;;;;;;113.72;30.65;;;;;;;11.87;100.00;100891.38;10473585;28;20051;-80
2024/03/02 01:11:00;;;;;;;89.60;18.45;;;;;;;11.75;100.00;100883.28;10486203;28;20134;-80
2024/03/02 01:16:24;;;;;;;81.97;14.15;;;;;;;11.77;100.00;100884.19;10472245;28;20048;-79
2024/03/02 01:21:47;;;;;;;88.82;15.32;;;;;;;11.77;100.00;100880.66;10484278;28;20033;-79
2024/03/02 01:27:09;;;;;;;94.70;17.70;;;;;;;11.68;100.00;100886.72;10471646;28;20057;-79
2024/03/02 01:32:33;;;;;;;90.60;18.63;;;;;;;11.55;100.00;100890.91;10479019;28;20389;-80
2024/03/02 01:37:56;;;;;;;106.47;32.50;;;;;;;11.55;100.00;100892.69;10477728;28;20048;-80
2024/03/02 01:43:18;;;;;;;133.07;71.25;;;;;;;11.53;100.00;100892.66;10493636;28;20052;-79
2024/03/02 01:48:42;;;;;;;129.65;63.53;;;;;;;11.45;100.00;100902.25;10493791;28;20057;-79
2024/03/02 01:54:05;;;;;;;123.43;62.40;;;;;;;11.53;100.00;100907.66;10493624;28;20044;-79
2024/03/02 01:59:28;;;;;;;102.80;26.77;;;;;;;11.50;100.00;100897.91;10493456;28;20040;-81
2024/03/02 02:04:53;;;;;;;120.53;43.67;;;;;;;11.46;100.00;100905.78;10480214;28;20140;-82
2024/03/02 02:10:16;;;;;;;77.72;22.52;;;;;;;11.43;100.00;100908.34;10478427;28;20048;-82
2024/03/02 02:15:38;;;;;;;82.97;16.83;;;;;;;11.35;100.00;100896.81;10492376;28;20480;-80
2024/03/02 02:21:02;;;;;;;82.15;14.98;;;;;;;11.50;100.00;100895.25;10494029;28;20056;-81
2024/03/02 02:26:26;;;;;;;79.03;12.82;;;;;;;11.48;100.00;100896.13;10493165;28;20251;-81
2024/03/02 02:31:52;;;;;;;69.18;11.18;;;;;;;11.24;100.00;100891.34;10493043;28;20723;-81
2024/03/02 02:37:14;;;;;;;70.40;13.10;;;;;;;11.19;100.00;100901.88;10479724;28;20044;-81
2024/03/02 02:42:38;;;;;;;77.63;11.32;;;;;;;11.40;100.00;100900.41;10477294;28;20056;-80
2024/03/02 02:48:02;;;;;;;77.80;12.75;;;;;;;11.39;100.00;100893.34;10479218;28;20125;-81
2024/03/02 02:53:25;;;;;;;71.93;12.15;;;;;;;11.34;100.00;100908.25;10477859;28;20044;-80
2024/03/02 02:58:49;;;;;;;76.72;12.35;;;;;;;11.26;100.00;100908.13;10469184;28;20124;-81
2024/03/02 03:04:11;;;;;;;73.78;10.70;;;;;;;11.31;100.00;100903.78;10476938;28;20151;-80
2024/03/02 03:09:34;;;;;;;70.70;12.52;;;;;;;11.27;100.00;100909.03;10476226;28;20040;-80
2024/03/02 03:14:58;;;;;;;70.68;11.63;;;;;;;11.38;100.00;100905.66;10476864;28;20048;-80
2024/03/02 03:20:21;;;;;;;67.65;10.95;;;;;;;11.58;100.00;100905.94;10489538;28;20052;-81
2024/03/02 03:25:44;;;;;;;81.07;34.65;;;;;;;11.53;100.00;100902.34;10489957;28;20040;-80
2024/03/02 03:31:08;;;;;;;55.58;10.40;;;;;;;11.42;100.00;100919.81;10476834;28;20076;-81
2024/03/02 03:36:30;;;;;;;77.53;11.55;;;;;;;11.47;100.00;100916.38;10476821;28;20538;-80
2024/03/02 03:41:53;;;;;;;68.15;11.35;;;;;;;11.33;100.00;100912.63;10477034;28;20056;-80
2024/03/02 03:47:17;;;;;;;52.10;8.93;;;;;;;11.61;100.00;100913.94;10475311;28;20049;-80
2024/03/02 03:52:39;;;;;;;89.65;42.75;;;;;;;11.56;100.00;100913.84;10503159;28;20663;-80
2024/03/02 03:58:02;;;;;;;57.22;9.82;;;;;;;11.36;100.00;100909.13;10475156;28;20052;-81
2024/03/02 04:03:25;;;;;;;55.78;10.35;;;;;;;11.19;100.00;100915.06;10488676;28;20488;-80
2024/03/02 04:08:48;;;;;;;52.35;10.65;;;;;;;10.97;100.00;100904.13;10489033;28;20126;-80
2024/03/02 04:14:10;;;;;;;58.97;8.63;;;;;;;10.85;100.00;100906.56;10486959;28;20044;-80
2024/03/02 04:19:34;;;;;;;50.72;9.13;;;;;;;10.78;100.00;100903.84;10494744;28;20090;-80
2024/03/02 04:24:57;;;;;;;64.22;9.73;;;;;;;10.84;100.00;100900.41;10471601;28;20400;-80
2024/03/02 04:30:19;;;;;;;58.30;10.55;;;;;;;10.93;100.00;100902.31;10474166;28;20048;-81
2024/03/02 04:35:43;;;;;;;54.35;9.30;;;;;;;11.07;100.00;100891.09;10487567;28;20052;-79
2024/03/02 04:41:07;;;;;;;45.92;9.55;;;;;;;10.87;100.00;100889.00;10484284;28;20102;-77
2024/03/02 04:46:29;;;;;;;49.70;8.40;;;;;;;11.06;100.00;100897.25;10472369;28;20068;-78
2024/03/02 04:51:53;;;;;;;39.92;7.05;;;;;;;11.01;100.00;100895.41;10473515;28;20052;-78
2024/03/02 04:57:15;;;;;;;51.50;8.52;;;;;;;10.90;100.00;100892.56;10481673;28;20068;-78
2024/03/02 05:02:38;;;;;;;41.15;8.70;;;;;;;11.05;100.00;100900.75;10471072;28;20500;-78
2024/03/02 05:08:03;;;;;;;44.95;7.97;;;;;;;11.26;100.00;100904.59;10507398;28;20063;-78
2024/03/02 05:13:25;;;;;;;54.22;17.60;;;;;;;11.59;100.00;100907.72;10506333;28;20107;-78
2024/03/02 05:18:47;;;;;;;41.33;6.75;;;;;;;11.79;100.00;100903.63;10493840;28;20076;-78
2024/03/02 05:24:11;;;;;;;42.45;6.72;;;;;;;12.32;100.00;100906.00;10479041;28;20063;-78
2024/03/02 05:29:34;;;;;;;44.30;7.43;;;;;;;13.19;100.00;100907.72;10479995;28;20068;-78
2024/03/02 05:34:56;;;;;;;44.38;7.35;;;;;;;14.01;100.00;100905.50;10494060;28;20072;-78
2024/03/02 05:40:20;;;;;;;43.47;7.82;;;;;;;14.70;100.00;100888.88;10479063;28;20047;-78
2024/03/02 05:45:43;;;;;;;34.67;5.65;;;;;;;15.32;100.00;100885.31;10479503;28;20044;-78
2024/03/02 05:51:05;;;;;;;47.15;7.75;;;;;;;16.06;100.00;100884.22;10472281;28;20563;-78
2024/03/02 05:56:29;;;;;;;43.20;6.93;;;;;;;17.53;100.00;100892.84;10460773;28;20511;-78
2024/03/02 06:01:52;;;;;;;44.03;6.43;;;;;;;19.26;100.00;100893.09;10491958;28;20052;-78
2024/03/02 06:07:14;;;;;;;47.15;8.70;;;;;;;20.83;100.00;100887.13;10477286;28;20040;-78
2024/03/02 06:12:38;;;;;;;41.13;7.80;;;;;;;21.48;100.00;100880.09;10515361;28;20071;-78
2024/03/02 06:18:01;;;;;;;36.17;5.57;;;;;;;21.43;100.00;100890.97;10471167;28;20044;-79
2024/03/02 06:23:23;;;;;;;40.88;7.25;;;;;;;20.77;100.00;100882.78;10511213;28;20492;-80
2024/03/02 06:28:48;;;;;;;57.17;6.97;;;;;;;22.41;100.00;100883.66;10473876;28;20048;-80
2024/03/02 06:34:10;;;;;;;53.85;7.40;;;;;;;24.27;95.56;100888.00;10509791;28;20049;-79
2024/03/02 06:39:33;;;;;;;49.83;7.10;;;;;;;25.41;78.29;100886.84;10477998;28;20055;-80
2024/03/02 06:44:57;;;;;;;39.85;7.38;;;;;;;26.20;67.96;100885.97;10480251;28;20400;-80
2024/03/02 06:50:20;;;;;;;50.95;7.72;;;;;;;26.92;59.12;100897.84;10462324;28;20055;-80
2024/03/02 06:55:43;;;;;;;54.28;8.35;;;;;;;25.60;65.07;100892.38;10464146;28;20052;-80
2024/03/02 07:01:08;;;;;;;54.33;7.18;;;;;;;26.72;58.34;100892.50;10489504;28;20055;-81
2024/03/02 07:06:30;;;;;;;65.50;9.15;;;;;;;28.06;51.52;100896.41;10468423;28;20044;-81
2024/03/02 07:11:53;;;;;;;62.65;8.52;;;;;;;29.39;47.81;100893.31;10476313;28;20110;-81
2024/03/02 07:17:17;;;;;;;33.88;6.32;;;;;;;30.72;43.62;100883.94;10473707;28;20053;-79
2024/03/02 07:22:39;;;;;;;58.60;9.35;;;;;;;30.47;43.67;100879.19;10484574;28;20059;-79
2024/03/02 07:28:02;;;;;;;57.72;7.82;;;;;;;30.84;41.40;100877.69;10466892;28;20044;-79
2024/03/02 07:33:26;;;;;;;65.80;9.32;;;;;;;29.05;42.76;100867.22;10476038;28;20548;-78
2024/03/02 07:38:50;;;;;;;51.97;9.10;;;;;;;28.45;42.13;100864.34;10502004;28;20048;-80
2024/03/02 07:44:14;;;;;;;57.22;9.10;;;;;;;25.70;45.54;100848.63;10475231;28;20045;-79
2024/03/02 07:49:38;;;;;;;59.47;10.13;;;;;;;22.85;62.56;100838.28;10529930;27;20044;-80
2024/03/02 07:55:01;;;;;;;60.95;12.95;;;;;;;21.27;82.76;100826.94;10449967;28;20048;-81
2024/03/02 08:00:25;;;;;;;59.47;10.48;;;;;;;24.44;56.73;100808.09;10487659;28;20056;-81
2024/03/02 08:05:49;;;;;;;71.32;12.05;;;;;;;25.46;52.33;100808.25;10473676;28;20543;-79
2024/03/02 08:11:12;;;;;;;57.13;12.73;;;;;;;25.41;51.88;100821.97;10477985;28;20058;-81
2024/03/02 08:16:34;;;;;;;76.25;17.58;;;;;;;27.71;46.13;100836.78;10486793;28;20045;-82
2024/03/02 08:21:59;;;;;;;57.83;11.05;;;;;;;28.53;42.62;100826.78;10478613;28;20040;-82
2024/03/02 08:27:22;;;;;;;58.88;9.15;;;;;;;28.29;42.46;100817.28;10441345;28;20043;-84
2024/03/02 08:32:47;;;;;;;60.72;10.85;;;;;;;28.19;42.96;100820.63;10487798;28;20075;-84
2024/03/02 08:38:11;;;;;;;53.47;15.07;;;;;;;28.63;42.17;100801.75;10448938;28;20048;-85
2024/03/02 08:43:34;;;;;;;45.78;7.45;;;;;;;28.92;41.64;100801.84;10474936;28;20388;-83
2024/03/02 08:48:56;;;;;;;48.63;9.68;;;;;;;28.52;40.71;100822.28;10452595;28;20068;-83
2024/03/02 08:54:20;;;;;;;51.38;8.70;;;;;;;27.87;41.39;100827.81;10502389;28;20143;-84
2024/03/02 08:59:43;;;;;;;55.15;8.40;;;;;;;25.01;48.09;100833.63;10473656;28;20036;-81
2024/03/02 09:05:08;;;;;;;57.05;11.05;;;;;;;27.12;43.77;100820.06;10501305;28;20068;-83
2024/03/02 09:10:32;;;;;;;55.50;10.63;;;;;;;27.13;43.10;100810.97;10488006;28;20084;-82
2024/03/02 09:15:55;;;;;;;67.15;10.32;;;;;;;27.85;42.78;100817.03;10472376;28;20056;-82
2024/03/02 09:21:17;;;;;;;47.97;9.25;;;;;;;28.09;41.97;100834.66;10473312;28;20044;-82
2024/03/02 09:26:41;;;;;;;61.45;9.52;;;;;;;28.82;40.46;100816.03;10471209;28;20059;-83
2024/03/02 09:32:04;;;;;;;54.28;11.00;;;;;;;30.84;38.86;100828.63;10488160;28;20044;-83
2024/03/02 09:37:28;;;;;;;59.45;9.05;;;;;;;31.07;34.92;100786.13;10488099;28;20076;-82
2024/03/02 09:42:53;;;;;;;52.35;7.80;;;;;;;27.37;41.23;100848.53;10474211;28;20060;-82
2024/03/02 09:48:18;;;;;;;52.58;8.38;;;;;;;25.60;47.02;100832.88;10474414;28;20051;-81
2024/03/02 09:53:41;;;;;;;61.72;9.38;;;;;;;24.71;51.79;100845.72;10493325;28;20135;-81
2024/03/02 09:59:06;;;;;;;82.03;26.80;;;;;;;24.93;51.74;100847.50;10481258;28;20060;-82
2024/03/02 10:04:29;;;;;;;61.72;10.88;;;;;;;25.53;50.88;100855.72;10494632;28;20492;-81
2024/03/02 10:09:52;;;;;;;48.78;8.77;;;;;;;25.18;48.81;100844.63;10474499;28;20044;-82
2024/03/02 10:15:25;;;;;;;51.28;8.88;;;;;;;24.25;55.36;100839.47;10493995;28;20102;-82
2024/03/02 10:20:48;;;;;;;58.40;8.18;;;;;;;23.61;63.29;100825.72;10480693;28;20437;-82
2024/03/02 10:26:18;;;;;;;46.78;6.50;;;;;;;23.18;69.95;100831.75;10478756;28;20435;-82
2024/03/02 10:31:44;;;;;;;63.17;7.90;;;;;;;22.71;73.75;100822.56;10477788;28;20523;-81
2024/03/02 10:37:08;;;;;;;39.75;6.90;;;;;;;22.90;70.01;100820.19;10507276;28;20048;-81
2024/03/02 10:42:30;;;;;;;48.22;7.82;;;;;;;22.73;72.31;100812.66;10493618;28;20071;-82
2024/03/02 10:47:54;;;;;;;48.38;9.38;;;;;;;22.45;75.69;100817.19;10507419;28;20044;-82
2024/03/02 10:53:16;;;;;;;43.42;7.78;;;;;;;21.98;83.98;100813.28;10478749;28;20098;-81
2024/03/02 10:58:40;;;;;;;31.98;5.35;;;;;;;21.20;100.00;100818.16;10492907;28;20074;-81
2024/03/02 11:04:09;;;;;;;53.20;8.23;;;;;;;23.79;93.33;100807.97;10478148;28;20053;-81
2024/03/02 11:09:35;;;;;;;30.67;5.28;;;;;;;24.57;69.46;100809.34;10492555;28;20581;-82
2024/03/02 11:14:59;;;;;;;41.40;7.07;;;;;;;27.19;50.75;100811.53;10506213;28;20040;-82
2024/03/02 11:20:24;;;;;;;35.90;7.28;;;;;;;26.84;50.14;100818.75;10478156;28;20626;-82
2024/03/02 11:25:47;;;;;;;35.90;6.63;;;;;;;25.13;56.27;100808.81;10477122;28;20057;-82
2024/03/02 11:31:09;;;;;;;36.97;6.72;;;;;;;24.14;63.11;100823.69;10476705;28;20072;-81
2024/03/02 11:36:34;;;;;;;41.08;8.98;;;;;;;23.14;70.39;100832.78;10503280;28;20052;-81
2024/03/02 11:41:57;;;;;;;35.90;6.63;;;;;;;22.25;80.68;100820.50;10464508;28;20047;-78
2024/03/02 11:47:20;;;;;;;29.08;5.15;;;;;;;19.71;100.00;100823.50;10498137;28;20040;-81
2024/03/02 11:52:46;;;;;;;27.52;4.63;;;;;;;18.14;100.00;100865.44;10489473;28;20059;-82
2024/03/02 11:58:12;;;;;;;30.35;5.88;;;;;;;18.02;100.00;100871.81;10466549;28;20131;-86
2024/03/02 12:03:36;;;;;;;31.92;4.72;;;;;;;18.02;100.00;100879.84;10487871;28;20056;-85
2024/03/02 12:09:01;;;;;;;34.00;5.75;;;;;;;18.24;100.00;100881.34;10474336;28;20141;-86
2024/03/02 12:14:24;;;;;;;41.58;7.13;;;;;;;18.55;100.00;100907.63;10526082;27;20059;-87
2024/03/02 12:19:47;;;;;;;40.83;6.47;;;;;;;19.01;100.00;100910.50;10484909;28;20040;-84
2024/03/02 12:25:11;;;;;;;68.03;11.40;;;;;;;19.49;100.00;100915.00;10477992;28;20587;-85
2024/03/02 12:30:36;;;;;;;45.55;8.13;;;;;;;19.98;100.00;100926.56;10492216;28;20052;-88
2024/03/02 12:35:59;;;;;;;45.72;7.30;;;;;;;20.07;100.00;100921.03;10455142;28;20520;-83
2024/03/02 12:41:24;;;;;;;57.08;10.02;;;;;;;20.55;100.00;100911.03;10481354;28;20048;-82
2024/03/02 12:46:47;;;;;;;123.63;27.10;;;;;;;20.56;100.00;100908.34;10446244;28;20060;-81
2024/03/02 12:52:10;;;;;;;50.92;9.40;;;;;;;19.77;100.00;100899.28;10456847;28;20064;-82
2024/03/02 12:57:35;;;;;;;54.05;12.63;;;;;;;18.93;100.00;100913.28;10482929;28;20087;-82
2024/03/02 13:03:01;;;;;;;43.22;10.05;;;;;;;18.68;100.00;100915.47;10450434;28;20047;-85
2024/03/02 13:08:24;;;;;;;47.03;10.23;;;;;;;19.64;100.00;100897.75;10462151;28;20143;-83
2024/03/02 13:13:48;;;;;;;33.65;5.88;;;;;;;20.06;100.00;100897.81;10477160;28;20051;-83
2024/03/02 13:19:12;;;;;;;163.57;69.15;;;;;;;19.53;100.00;100913.16;10459813;28;20044;-80
2024/03/02 13:24:34;;;;;;;32.55;9.48;;;;;;;18.11;100.00;100916.25;10462390;28;20056;-83
2024/03/02 13:29:58;;;;;;;36.90;13.07;;;;;;;17.63;100.00;100917.72;10507930;28;20040;-81
2024/03/02 13:35:21;;;;;;;43.35;18.35;;;;;;;18.17;100.00;100909.03;10491476;28;20098;-85
2024/03/02 13:40:44;;;;;;;24.90;10.10;;;;;;;18.12;100.00;100921.56;10481886;28;20040;-82
2024/03/02 13:46:10;;;;;;;14.80;2.72;;;;;;;17.91;100.00;100929.84;10441785;28;20147;-80
2024/03/02 13:51:33;;;;;;;21.98;3.75;;;;;;;17.78;100.00;100922.88;10471264;28;20049;-79
2024/03/02 13:56:55;;;;;;;19.33;7.00;;;;;;;17.59;100.00;100926.63;10474119;28;20037;-80
2024/03/02 14:02:20;;;;;;;24.50;4.68;;;;;;;17.58;100.00;100933.75;10495531;28;20048;-79
2024/03/02 14:07:42;;;;;;;21.20;5.45;;;;;;;17.47;100.00;100931.16;10446898;28;20051;-78
2024/03/02 14:13:05;;;;;;;18.08;5.10;;;;;;;17.41;100.00;100930.34;10489966;28;20053;-79
2024/03/02 14:18:29;;;;;;;16.70;4.15;;;;;;;17.36;100.00;100926.84;10507256;28;20052;-79
2024/03/02 14:23:51;;;;;;;14.27;2.90;;;;;;;17.26;100.00;100923.38;10504902;28;20141;-77
2024/03/02 14:29:14;;;;;;;25.88;7.53;;;;;;;17.26;100.00;100926.06;10483519;28;20102;-80
2024/03/02 14:34:38;;;;;;;40.00;21.17;;;;;;;17.19;100.00;100931.47;10443123;28;20056;-79
2024/03/02 14:40:00;;;;;;;13.88;3.45;;;;;;;17.19;100.00;100932.34;10468926;28;20738;-77
2024/03/02 14:45:23;;;;;;;24.05;3.80;;;;;;;17.15;100.00;100943.91;10476046;28;20045;-78
2024/03/02 14:50:48;;;;;;;19.13;3.53;;;;;;;17.02;100.00;100950.25;10471983;28;20044;-77
2024/03/02 14:56:10;;;;;;;75.57;15.40;;;;;;;17.03;100.00;100954.69;10482872;28;20146;-80
2024/03/02 15:01:32;;;;;;;25.67;7.47;;;;;;;16.99;100.00;100947.63;10455538;28;20500;-80
2024/03/02 15:06:57;;;;;;;20.00;4.57;;;;;;;16.91;100.00;100947.69;10472278;28;20049;-79
2024/03/02 15:12:19;;;;;;;31.27;6.93;;;;;;;16.79;100.00;100944.22;10502240;28;20044;-78
2024/03/02 15:17:43;;;;;;;25.40;4.50;;;;;;;16.71;100.00;100950.47;10492224;28;20044;-79
2024/03/02 15:23:07;;;;;;;27.90;9.43;;;;;;;16.62;100.00;100953.19;10457694;28;20501;-79
2024/03/02 15:28:30;;;;;;;28.52;6.82;;;;;;;16.41;100.00;100958.59;10493188;28;20426;-77
2024/03/02 15:33:53;;;;;;;25.40;4.82;;;;;;;16.28;100.00;100965.78;10435376;28;20165;-77
2024/03/02 15:39:18;;;;;;;27.60;9.18;;;;;;;16.29;100.00;100983.53;10462196;28;20511;-78
2024/03/02 15:44:41;;;;;;;31.50;7.63;;;;;;;16.05;100.00;100993.41;10463452;28;20063;-85
2024/03/02 15:50:03;;;;;;;24.05;8.35;;;;;;;15.89;100.00;100989.88;10471201;28;20126;-78
2024/03/02 15:55:28;;;;;;;19.15;4.15;;;;;;;15.77;100.00;100992.56;10455097;28;20048;-78
2024/03/02 16:00:50;;;;;;;25.98;5.53;;;;;;;15.69;100.00;101005.88;10489058;28;20052;-79
2024/03/02 16:06:13;;;;;;;18.65;4.63;;;;;;;15.39;100.00;101006.78;10473754;28;20488;-78
2024/03/02 16:11:37;;;;;;;19.83;5.43;;;;;;;15.19;100.00;101010.31;10465725;28;20053;-78
2024/03/02 16:16:59;;;;;;;42.50;20.48;;;;;;;14.90;100.00;101021.78;10466829;28;20060;-78
2024/03/02 16:22:21;;;;;;;20.08;5.00;;;;;;;14.68;100.00;101006.69;10490133;28;20040;-78
2024/03/02 16:27:46;;;;;;;21.88;4.15;;;;;;;14.36;100.00;101012.75;10495521;28;20048;-78
2024/03/02 16:33:10;;;;;;;19.48;4.70;;;;;;;14.33;100.00;101025.13;10478188;28;20055;-78
2024/03/02 16:38:33;;;;;;;45.85;21.08;;;;;;;14.28;100.00;101033.06;10473168;28;20551;-77
2024/03/02 16:43:57;;;;;;;58.70;42.67;;;;;;;14.23;100.00;101033.94;10447591;28;20032;-79
2024/03/02 16:49:20;;;;;;;50.00;38.17;;;;;;;14.15;100.00;101043.63;10452963;28;20063;-76
2024/03/02 16:54:42;;;;;;;23.95;5.82;;;;;;;14.24;100.00;101035.72;10453331;28;20044;-78
2024/03/02 17:00:09;;;;;;;44.63;19.23;;;;;;;14.26;100.00;101040.13;10466141;28;20400;-77
2024/03/02 17:05:31;;;;;;;35.65;14.82;;;;;;;14.33;100.00;101051.69;10463001;28;20048;-77
2024/03/02 17:10:54;;;;;;;27.67;8.27;;;;;;;14.37;100.00;101058.81;10459506;28;20091;-76
2024/03/02 17:16:18;;;;;;;30.27;6.03;;;;;;;13.98;100.00;101055.91;10436657;28;20546;-77
2024/03/02 17:21:43;;;;;;;36.67;19.02;;;;;;;13.84;100.00;101063.78;10461553;28;20052;-75
2024/03/02 17:27:06;;;;;;;38.42;13.00;;;;;;;13.70;100.00;101061.03;10458360;28;20555;-78
2024/03/02 17:32:30;;;;;;;31.42;12.50;;;;;;;13.69;100.00;101074.28;10468154;28;20057;-76
2024/03/02 17:37:53;;;;;;;29.08;8.15;;;;;;;13.50;100.00;101083.84;10479617;28;20052;-78
2024/03/02 17:43:15;;;;;;;43.70;18.65;;;;;;;13.52;100.00;101087.41;10502003;28;20052;-78
2024/03/02 17:48:39;;;;;;;24.60;5.55;;;;;;;13.33;100.00;101085.44;10479529;28;20051;-79
2024/03/02 17:54:02;;;;;;;33.47;8.38;;;;;;;13.41;100.00;101095.25;10504182;28;20131;-78
2024/03/02 17:59:25;;;;;;;52.13;16.10;;;;;;;13.45;100.00;101090.88;10501372;28;20037;-76
2024/03/02 18:04:49;;;;;;;59.00;26.25;;;;;;;13.80;100.00;101088.50;10490027;28;20044;-77
2024/03/02 18:10:11;;;;;;;58.13;34.70;;;;;;;13.53;100.00;101097.13;10475639;28;20048;-79
2024/03/02 18:15:34;;;;;;;50.50;15.32;;;;;;;13.42;100.00;101106.75;10473485;28;20144;-77
2024/03/02 18:20:58;;;;;;;45.25;19.10;;;;;;;13.44;100.00;101105.00;10480944;28;20048;-78
2024/03/02 18:26:20;;;;;;;41.33;7.18;;;;;;;13.20;100.00;101116.25;10480188;28;20171;-79
2024/03/02 18:31:43;;;;;;;26.92;6.45;;;;;;;13.11;100.00;101129.38;10476653;28;20105;-78
2024/03/02 18:37:07;;;;;;;60.42;21.48;;;;;;;13.30;100.00;101128.75;10485410;28;20052;-79
2024/03/02 18:42:30;;;;;;;59.92;22.52;;;;;;;13.57;100.00;101134.31;10497173;28;20068;-78
2024/03/02 18:47:53;;;;;;;37.17;7.28;;;;;;;13.13;100.00;101120.59;10467116;28;20041;-76
2024/03/02 18:53:17;;;;;;;41.92;10.82;;;;;;;13.15;100.00;101137.41;10481384;28;20056;-77
2024/03/02 18:58:40;;;;;;;57.67;20.48;;;;;;;13.05;100.00;101139.91;10476041;28;20049;-77
2024/03/02 19:04:02;;;;;;;52.30;18.95;;;;;;;13.03;100.00;101139.00;10462874;28;20118;-77
2024/03/02 19:09:26;;;;;;;85.38;34.53;;;;;;;13.06;100.00;101160.25;10457704;28;20094;-77
2024/03/02 19:14:49;;;;;;;109.90;74.22;;;;;;;13.04;100.00;101175.25;10506259;28;20088;-77
2024/03/02 19:20:12;;;;;;;51.15;16.17;;;;;;;12.99;100.00;101182.25;10464432;28;20086;-78
2024/03/02 19:25:36;;;;;;;45.10;13.48;;;;;;;12.98;100.00;101188.41;10488668;28;20049;-76
2024/03/02 19:30:59;;;;;;;65.30;26.48;;;;;;;12.98;100.00;101196.38;10492325;28;20106;-76
2024/03/02 19:36:21;;;;;;;59.25;15.57;;;;;;;12.96;100.00;101199.00;10469732;28;20497;-77
2024/03/02 19:41:45;;;;;;;46.75;10.98;;;;;;;12.80;100.00;101204.94;10447979;28;20110;-77
2024/03/02 19:47:08;;;;;;;55.58;14.50;;;;;;;12.67;100.00;101195.94;10443133;28;20037;-76
2024/03/02 19:52:31;;;;;;;55.15;7.88;;;;;;;12.64;100.00;101201.22;10463946;28;20048;-76
2024/03/02 19:57:55;;;;;;;47.33;7.35;;;;;;;12.67;100.00;101198.59;10485102;28;20044;-77
2024/03/02 20:03:17;;;;;;;45.30;9.82;;;;;;;12.58;100.00;101192.28;10470800;28;20123;-77
2024/03/02 20:08:40;;;;;;;45.92;9.93;;;;;;;12.48;100.00;101208.91;10483840;28;20056;-78
2024/03/02 20:14:04;;;;;;;34.55;8.10;;;;;;;12.34;100.00;101208.69;10485396;28;20048;-77
2024/03/02 20:19:26;;;;;;;72.65;28.15;;;;;;;12.34;100.00;101206.94;10474699;28;20400;-78
2024/03/02 20:24:51;;;;;;;57.90;12.73;;;;;;;12.08;100.00;101197.69;10486704;28;20044;-77
2024/03/02 20:30:15;;;;;;;35.03;10.55;;;;;;;12.27;100.00;101206.84;10489274;28;20604;-78
2024/03/02 20:35:38;;;;;;;45.13;15.00;;;;;;;12.23;100.00;101221.75;10484699;28;20140;-77
2024/03/02 20:41:01;;;;;;;51.17;11.57;;;;;;;12.13;100.00;101229.53;10476435;28;20496;-77
2024/03/02 20:46:25;;;;;;;43.47;6.35;;;;;;;12.10;100.00;101227.72;10474381;28;20496;-77
2024/03/02 20:51:48;;;;;;;37.30;5.65;;;;;;;12.06;100.00;101222.34;10502409;28;20041;-78
2024/03/02 20:57:10;;;;;;;62.30;28.67;;;;;;;12.07;100.00;101226.78;10506297;28;20217;-77
2024/03/02 21:02:35;;;;;;;31.27;10.38;;;;;;;11.97;100.00;101226.63;10488691;28;20056;-79
2024/03/02 21:07:57;;;;;;;43.70;23.02;;;;;;;11.94;100.00;101231.88;10470877;28;20110;-78
2024/03/02 21:13:20;;;;;;;32.65;9.15;;;;;;;11.77;100.00;101225.38;10471944;28;20052;-77
2024/03/02 21:18:44;;;;;;;37.42;12.90;;;;;;;11.73;100.00;101247.31;10510694;28;20049;-77
2024/03/02 21:24:07;;;;;;;42.80;15.20;;;;;;;11.69;100.00;101239.28;10475608;28;20045;-77
2024/03/02 21:29:29;;;;;;;28.85;15.05;;;;;;;11.62;100.00;101235.63;10474707;28;20806;-77
2024/03/02 21:34:53;;;;;;;27.67;10.57;;;;;;;11.55;100.00;101229.34;10461022;28;20045;-77
2024/03/02 21:40:16;;;;;;;43.50;25.20;;;;;;;11.54;100.00;101229.31;10488708;28;20057;-77
2024/03/02 21:45:38;;;;;;;36.25;17.85;;;;;;;11.55;100.00;101220.53;10489685;28;20079;-76
2024/03/02 21:51:02;;;;;;;24.83;10.45;;;;;;;11.47;100.00;101220.38;10491251;28;20044;-76
2024/03/02 21:56:25;;;;;;;34.15;14.75;;;;;;;11.43;100.00;101220.28;10497803;28;20041;-77
2024/03/02 22:01:48;;;;;;;31.67;16.58;;;;;;;11.45;100.00;101216.81;10479822;28;20476;-77
2024/03/02 22:07:12;;;;;;;24.35;7.53;;;;;;;11.42;100.00;101214.09;10495625;28;20061;-77
2024/03/02 22:12:35;;;;;;;48.80;29.40;;;;;;;11.44;100.00;101208.84;10515307;28;20044;-77
2024/03/02 22:18:00;;;;;;;41.88;34.35;;;;;;;11.47;100.00;101215.09;10480256;28;20056;-76
2024/03/02 22:23:24;;;;;;;24.00;15.95;;;;;;;11.38;100.00;101217.56;10493769;28;20052;-76
2024/03/02 22:28:46;;;;;;;30.52;22.45;;;;;;;11.28;100.00;101215.59;10457329;28;20105;-76
2024/03/02 22:34:09;;;;;;;26.50;13.40;;;;;;;11.28;100.00;101212.97;10479460;28;20131;-76
2024/03/02 22:39:33;;;;;;;33.65;14.98;;;;;;;11.24;100.00;101212.84;10479484;28;20700;-76
2024/03/02 22:44:55;;;;;;;36.13;16.65;;;;;;;11.38;100.00;101225.47;10493026;28;20048;-76
2024/03/02 22:50:18;;;;;;;28.52;11.25;;;;;;;11.25;100.00;101223.47;10479937;28;20090;-76
2024/03/02 22:55:42;;;;;;;23.42;9.20;;;;;;;11.02;100.00;101236.22;10476945;28;20044;-76
2024/03/02 23:01:08;;;;;;;25.92;9.00;;;;;;;11.07;100.00;101233.66;10489267;28;20098;-76
2024/03/02 23:06:31;;;;;;;16.27;8.88;;;;;;;10.90;100.00;101230.63;10498590;28;20053;-76
2024/03/02 23:11:55;;;;;;;19.75;7.85;;;;;;;10.92;100.00;101228.94;10500523;28;20048;-76
2024/03/02 23:17:17;;;;;;;15.40;6.47;;;;;;;10.73;100.00;101224.09;10521118;28;20056;-76
2024/03/02 23:22:42;;;;;;;24.55;10.55;;;;;;;10.66;100.00;101238.03;10519525;28;20124;-75
2024/03/02 23:28:07;;;;;;;18.63;8.65;;;;;;;10.69;100.00;101240.75;10478975;28;20052;-76
2024/03/02 23:33:30;;;;;;;19.38;11.40;;;;;;;10.68;100.00;101244.25;10491018;28;20139;-76
2024/03/02 23:38:53;;;;;;;26.17;16.75;;;;;;;10.81;100.00;101241.03;10478363;28;20126;-75
2024/03/02 23:44:17;;;;;;;25.50;17.27;;;;;;;10.75;100.00;101246.16;10486024;28;20064;-77
2024/03/02 23:49:40;;;;;;;18.15;7.93;;;;;;;10.89;100.00;101238.56;10491130;28;20063;-76
2024/03/02 23:55:03;;;;;;;14.35;5.53;;;;;;;10.73;100.00;101222.34;10474206;28;20051;-76
